sensor_id;sensor_type;location;lat;lon;timestamp;P1;durP1;ratioP1;P2;durP2;ratioP2
19760;SDS011;10039;42.632;23.408;2023-05-02T00:01:08;0.20;;;0.20;;
19760;SDS011;10039;42.632;23.408;2023-05-02T00:03:34;0.20;;;0.20;;
19760;SDS011;10039;42.632;23.408;2023-05-02T00:06:00;0.20;;;0.20;;
19760;SDS011;10039;42.632;23.408;2023-05-02T00:08:26;0.25;;;0.25;;
19760;SDS011;10039;42.632;23.408;2023-05-02T00:10:52;0.10;;;0.10;;
19760;SDS011;10039;42.632;23.408;2023-05-02T00:13:17;0.20;;;0.20;;
19760;SDS011;10039;42.632;23.408;2023-05-02T00:15:43;0.20;;;0.20;;
19760;SDS011;10039;42.632;23.408;2023-05-02T00:18:08;0.20;;;0.20;;
19760;SDS011;10039;42.632;23.408;2023-05-02T00:20:34;0.20;;;0.20;;
19760;SDS011;10039;42.632;23.408;2023-05-02T00:22:59;0.20;;;0.20;;
19760;SDS011;10039;42.632;23.408;2023-05-02T00:25:25;0.30;;;0.30;;
19760;SDS011;10039;42.632;23.408;2023-05-02T00:27:51;0.20;;;0.20;;
19760;SDS011;10039;42.632;23.408;2023-05-02T00:30:17;0.20;;;0.20;;
19760;SDS011;10039;42.632;23.408;2023-05-02T00:32:43;0.15;;;0.15;;
19760;SDS011;10039;42.632;23.408;2023-05-02T00:35:09;0.30;;;0.30;;
19760;SDS011;10039;42.632;23.408;2023-05-02T00:37:34;0.20;;;0.20;;
19760;SDS011;10039;42.632;23.408;2023-05-02T00:40:00;0.20;;;0.20;;
19760;SDS011;10039;42.632;23.408;2023-05-02T00:42:27;0.30;;;0.30;;
19760;SDS011;10039;42.632;23.408;2023-05-02T00:44:55;0.20;;;0.20;;
19760;SDS011;10039;42.632;23.408;2023-05-02T00:47:21;0.20;;;0.20;;
19760;SDS011;10039;42.632;23.408;2023-05-02T00:49:50;0.20;;;0.20;;
19760;SDS011;10039;42.632;23.408;2023-05-02T00:52:16;0.22;;;0.22;;
19760;SDS011;10039;42.632;23.408;2023-05-02T00:54:42;0.20;;;0.20;;
19760;SDS011;10039;42.632;23.408;2023-05-02T00:57:08;0.20;;;0.20;;
19760;SDS011;10039;42.632;23.408;2023-05-02T00:59:33;0.20;;;0.20;;
19760;SDS011;10039;42.632;23.408;2023-05-02T01:07:59;0.30;;;0.30;;
19760;SDS011;10039;42.632;23.408;2023-05-02T01:10:38;0.20;;;0.20;;
19760;SDS011;10039;42.632;23.408;2023-05-02T01:13:17;0.20;;;0.20;;
19760;SDS011;10039;42.632;23.408;2023-05-02T01:15:46;0.30;;;0.30;;
19760;SDS011;10039;42.632;23.408;2023-05-02T01:18:15;0.30;;;0.30;;
19760;SDS011;10039;42.632;23.408;2023-05-02T01:20:46;0.30;;;0.30;;
19760;SDS011;10039;42.632;23.408;2023-05-02T01:23:19;0.20;;;0.20;;
19760;SDS011;10039;42.632;23.408;2023-05-02T01:26:08;0.20;;;0.20;;
19760;SDS011;10039;42.632;23.408;2023-05-02T01:31:31;0.20;;;0.20;;
19760;SDS011;10039;42.632;23.408;2023-05-02T01:34:00;0.20;;;0.20;;
19760;SDS011;10039;42.632;23.408;2023-05-02T01:36:28;0.20;;;0.20;;
19760;SDS011;10039;42.632;23.408;2023-05-02T01:38:56;0.20;;;0.20;;
19760;SDS011;10039;42.632;23.408;2023-05-02T01:41:25;0.20;;;0.20;;
19760;SDS011;10039;42.632;23.408;2023-05-02T01:43:53;0.20;;;0.20;;
19760;SDS011;10039;42.632;23.408;2023-05-02T01:46:21;0.20;;;0.20;;
19760;SDS011;10039;42.632;23.408;2023-05-02T01:48:50;0.20;;;0.20;;
19760;SDS011;10039;42.632;23.408;2023-05-02T01:51:17;0.30;;;0.30;;
19760;SDS011;10039;42.632;23.408;2023-05-02T01:53:44;0.30;;;0.30;;
19760;SDS011;10039;42.632;23.408;2023-05-02T01:56:13;0.20;;;0.20;;
19760;SDS011;10039;42.632;23.408;2023-05-02T01:58:42;0.20;;;0.20;;
19760;SDS011;10039;42.632;23.408;2023-05-02T02:01:10;0.30;;;0.30;;
19760;SDS011;10039;42.632;23.408;2023-05-02T02:03:38;0.20;;;0.20;;
19760;SDS011;10039;42.632;23.408;2023-05-02T02:06:05;0.30;;;0.30;;
19760;SDS011;10039;42.632;23.408;2023-05-02T02:08:32;0.20;;;0.20;;
19760;SDS011;10039;42.632;23.408;2023-05-02T02:10:58;0.20;;;0.20;;
19760;SDS011;10039;42.632;23.408;2023-05-02T02:13:38;0.30;;;0.30;;
19760;SDS011;10039;42.632;23.408;2023-05-02T02:16:13;0.20;;;0.20;;
19760;SDS011;10039;42.632;23.408;2023-05-02T02:18:45;0.20;;;0.20;;
19760;SDS011;10039;42.632;23.408;2023-05-02T02:21:11;0.20;;;0.20;;
19760;SDS011;10039;42.632;23.408;2023-05-02T02:23:42;0.22;;;0.22;;
19760;SDS011;10039;42.632;23.408;2023-05-02T02:26:11;0.20;;;0.20;;
19760;SDS011;10039;42.632;23.408;2023-05-02T02:28:38;0.10;;;0.10;;
19760;SDS011;10039;42.632;23.408;2023-05-02T02:31:04;0.20;;;0.20;;
19760;SDS011;10039;42.632;23.408;2023-05-02T02:33:30;0.30;;;0.30;;
19760;SDS011;10039;42.632;23.408;2023-05-02T02:36:18;0.30;;;0.30;;
19760;SDS011;10039;42.632;23.408;2023-05-02T02:41:44;0.30;;;0.30;;
19760;SDS011;10039;42.632;23.408;2023-05-02T02:49:49;0.20;;;0.20;;
19760;SDS011;10039;42.632;23.408;2023-05-02T02:55:30;0.20;;;0.20;;
19760;SDS011;10039;42.632;23.408;2023-05-02T03:00:39;0.20;;;0.20;;
19760;SDS011;10039;42.632;23.408;2023-05-02T03:03:05;0.20;;;0.20;;
19760;SDS011;10039;42.632;23.408;2023-05-02T03:05:32;0.30;;;0.30;;
19760;SDS011;10039;42.632;23.408;2023-05-02T03:07:58;0.20;;;0.20;;
19760;SDS011;10039;42.632;23.408;2023-05-02T03:10:24;0.28;;;0.28;;
19760;SDS011;10039;42.632;23.408;2023-05-02T03:12:50;0.20;;;0.20;;
19760;SDS011;10039;42.632;23.408;2023-05-02T03:18:12;0.20;;;0.20;;
19760;SDS011;10039;42.632;23.408;2023-05-02T03:20:38;0.22;;;0.22;;
19760;SDS011;10039;42.632;23.408;2023-05-02T03:23:03;0.30;;;0.30;;
19760;SDS011;10039;42.632;23.408;2023-05-02T03:25:29;0.28;;;0.28;;
19760;SDS011;10039;42.632;23.408;2023-05-02T03:27:57;0.30;;;0.30;;
19760;SDS011;10039;42.632;23.408;2023-05-02T03:30:23;0.20;;;0.20;;
19760;SDS011;10039;42.632;23.408;2023-05-02T03:32:48;0.10;;;0.10;;
19760;SDS011;10039;42.632;23.408;2023-05-02T03:35:14;0.30;;;0.30;;
19760;SDS011;10039;42.632;23.408;2023-05-02T03:37:40;0.30;;;0.30;;
19760;SDS011;10039;42.632;23.408;2023-05-02T03:40:06;0.20;;;0.20;;
19760;SDS011;10039;42.632;23.408;2023-05-02T03:42:35;0.20;;;0.20;;
19760;SDS011;10039;42.632;23.408;2023-05-02T03:45:04;0.20;;;0.20;;
19760;SDS011;10039;42.632;23.408;2023-05-02T03:47:31;0.30;;;0.30;;
19760;SDS011;10039;42.632;23.408;2023-05-02T03:49:56;0.20;;;0.20;;
19760;SDS011;10039;42.632;23.408;2023-05-02T03:52:23;0.20;;;0.20;;
19760;SDS011;10039;42.632;23.408;2023-05-02T03:54:49;0.10;;;0.10;;
19760;SDS011;10039;42.632;23.408;2023-05-02T03:57:14;0.30;;;0.30;;
19760;SDS011;10039;42.632;23.408;2023-05-02T03:59:40;0.22;;;0.22;;
19760;SDS011;10039;42.632;23.408;2023-05-02T04:02:07;0.20;;;0.20;;
19760;SDS011;10039;42.632;23.408;2023-05-02T04:04:33;0.20;;;0.20;;
19760;SDS011;10039;42.632;23.408;2023-05-02T04:06:58;0.20;;;0.20;;
19760;SDS011;10039;42.632;23.408;2023-05-02T04:09:24;0.20;;;0.20;;
19760;SDS011;10039;42.632;23.408;2023-05-02T04:11:50;0.20;;;0.20;;
19760;SDS011;10039;42.632;23.408;2023-05-02T04:14:16;0.28;;;0.28;;
19760;SDS011;10039;42.632;23.408;2023-05-02T04:16:46;0.20;;;0.20;;
19760;SDS011;10039;42.632;23.408;2023-05-02T04:19:12;0.20;;;0.20;;
19760;SDS011;10039;42.632;23.408;2023-05-02T04:21:38;0.20;;;0.20;;
19760;SDS011;10039;42.632;23.408;2023-05-02T04:24:03;0.28;;;0.28;;
19760;SDS011;10039;42.632;23.408;2023-05-02T04:26:29;0.20;;;0.20;;
19760;SDS011;10039;42.632;23.408;2023-05-02T04:28:55;0.20;;;0.20;;
19760;SDS011;10039;42.632;23.408;2023-05-02T04:31:21;0.20;;;0.20;;
19760;SDS011;10039;42.632;23.408;2023-05-02T04:33:46;0.20;;;0.20;;
19760;SDS011;10039;42.632;23.408;2023-05-02T04:36:13;0.20;;;0.20;;
19760;SDS011;10039;42.632;23.408;2023-05-02T04:38:38;0.20;;;0.20;;
19760;SDS011;10039;42.632;23.408;2023-05-02T04:41:04;0.20;;;0.20;;
19760;SDS011;10039;42.632;23.408;2023-05-02T04:43:29;0.20;;;0.20;;
19760;SDS011;10039;42.632;23.408;2023-05-02T04:45:58;0.20;;;0.20;;
19760;SDS011;10039;42.632;23.408;2023-05-02T04:48:23;0.30;;;0.30;;
19760;SDS011;10039;42.632;23.408;2023-05-02T04:50:50;0.20;;;0.20;;
19760;SDS011;10039;42.632;23.408;2023-05-02T04:53:17;0.20;;;0.20;;
19760;SDS011;10039;42.632;23.408;2023-05-02T04:55:43;0.13;;;0.13;;
19760;SDS011;10039;42.632;23.408;2023-05-02T04:58:08;0.20;;;0.20;;
19760;SDS011;10039;42.632;23.408;2023-05-02T05:00:34;0.20;;;0.20;;
19760;SDS011;10039;42.632;23.408;2023-05-02T05:03:00;0.20;;;0.20;;
19760;SDS011;10039;42.632;23.408;2023-05-02T05:05:25;0.20;;;0.20;;
19760;SDS011;10039;42.632;23.408;2023-05-02T05:07:51;0.20;;;0.20;;
19760;SDS011;10039;42.632;23.408;2023-05-02T05:10:17;0.20;;;0.20;;
19760;SDS011;10039;42.632;23.408;2023-05-02T05:12:42;0.20;;;0.20;;
19760;SDS011;10039;42.632;23.408;2023-05-02T05:15:08;0.20;;;0.20;;
19760;SDS011;10039;42.632;23.408;2023-05-02T05:17:34;0.10;;;0.10;;
19760;SDS011;10039;42.632;23.408;2023-05-02T05:20:00;0.20;;;0.20;;
19760;SDS011;10039;42.632;23.408;2023-05-02T05:22:26;0.20;;;0.20;;
19760;SDS011;10039;42.632;23.408;2023-05-02T05:24:54;0.20;;;0.20;;
19760;SDS011;10039;42.632;23.408;2023-05-02T05:27:20;0.17;;;0.17;;
19760;SDS011;10039;42.632;23.408;2023-05-02T05:29:46;0.20;;;0.20;;
19760;SDS011;10039;42.632;23.408;2023-05-02T05:32:11;0.20;;;0.20;;
19760;SDS011;10039;42.632;23.408;2023-05-02T05:34:37;0.20;;;0.20;;
19760;SDS011;10039;42.632;23.408;2023-05-02T05:37:03;0.20;;;0.20;;
19760;SDS011;10039;42.632;23.408;2023-05-02T05:39:28;0.20;;;0.20;;
19760;SDS011;10039;42.632;23.408;2023-05-02T05:41:54;0.20;;;0.20;;
19760;SDS011;10039;42.632;23.408;2023-05-02T05:44:21;0.20;;;0.20;;
19760;SDS011;10039;42.632;23.408;2023-05-02T05:46:47;0.20;;;0.20;;
19760;SDS011;10039;42.632;23.408;2023-05-02T05:49:14;0.25;;;0.25;;
19760;SDS011;10039;42.632;23.408;2023-05-02T05:51:40;0.20;;;0.20;;
19760;SDS011;10039;42.632;23.408;2023-05-02T05:54:05;0.20;;;0.20;;
19760;SDS011;10039;42.632;23.408;2023-05-02T05:56:31;0.20;;;0.20;;
19760;SDS011;10039;42.632;23.408;2023-05-02T05:58:57;0.20;;;0.20;;
19760;SDS011;10039;42.632;23.408;2023-05-02T06:01:22;0.20;;;0.20;;
19760;SDS011;10039;42.632;23.408;2023-05-02T06:03:48;0.20;;;0.20;;
19760;SDS011;10039;42.632;23.408;2023-05-02T06:06:13;0.20;;;0.20;;
19760;SDS011;10039;42.632;23.408;2023-05-02T06:08:39;0.20;;;0.20;;
19760;SDS011;10039;42.632;23.408;2023-05-02T06:11:08;0.20;;;0.20;;
19760;SDS011;10039;42.632;23.408;2023-05-02T06:13:35;0.15;;;0.15;;
19760;SDS011;10039;42.632;23.408;2023-05-02T06:16:01;0.20;;;0.20;;
19760;SDS011;10039;42.632;23.408;2023-05-02T06:18:27;0.17;;;0.17;;
19760;SDS011;10039;42.632;23.408;2023-05-02T06:20:53;0.13;;;0.13;;
19760;SDS011;10039;42.632;23.408;2023-05-02T06:23:18;0.20;;;0.20;;
19760;SDS011;10039;42.632;23.408;2023-05-02T06:25:44;0.10;;;0.10;;
19760;SDS011;10039;42.632;23.408;2023-05-02T06:28:09;0.20;;;0.20;;
19760;SDS011;10039;42.632;23.408;2023-05-02T06:30:35;0.20;;;0.20;;
19760;SDS011;10039;42.632;23.408;2023-05-02T06:33:02;0.20;;;0.20;;
19760;SDS011;10039;42.632;23.408;2023-05-02T06:35:28;0.20;;;0.20;;
19760;SDS011;10039;42.632;23.408;2023-05-02T06:37:54;0.10;;;0.10;;
19760;SDS011;10039;42.632;23.408;2023-05-02T06:40:20;0.10;;;0.10;;
19760;SDS011;10039;42.632;23.408;2023-05-02T06:42:45;0.10;;;0.10;;
19760;SDS011;10039;42.632;23.408;2023-05-02T06:45:11;0.20;;;0.20;;
19760;SDS011;10039;42.632;23.408;2023-05-02T06:47:36;0.10;;;0.10;;
19760;SDS011;10039;42.632;23.408;2023-05-02T06:50:01;0.17;;;0.17;;
19760;SDS011;10039;42.632;23.408;2023-05-02T06:52:27;0.20;;;0.20;;
19760;SDS011;10039;42.632;23.408;2023-05-02T06:54:53;0.17;;;0.17;;
19760;SDS011;10039;42.632;23.408;2023-05-02T06:57:18;0.20;;;0.20;;
19760;SDS011;10039;42.632;23.408;2023-05-02T06:59:44;0.10;;;0.10;;
19760;SDS011;10039;42.632;23.408;2023-05-02T07:02:09;0.20;;;0.20;;
19760;SDS011;10039;42.632;23.408;2023-05-02T07:04:35;0.10;;;0.10;;
19760;SDS011;10039;42.632;23.408;2023-05-02T07:07:00;0.10;;;0.10;;
19760;SDS011;10039;42.632;23.408;2023-05-02T07:09:26;0.10;;;0.10;;
19760;SDS011;10039;42.632;23.408;2023-05-02T07:11:51;0.17;;;0.17;;
19760;SDS011;10039;42.632;23.408;2023-05-02T07:14:17;0.15;;;0.15;;
19760;SDS011;10039;42.632;23.408;2023-05-02T07:16:42;0.17;;;0.17;;
19760;SDS011;10039;42.632;23.408;2023-05-02T07:19:08;0.20;;;0.20;;
19760;SDS011;10039;42.632;23.408;2023-05-02T07:21:33;0.17;;;0.17;;
19760;SDS011;10039;42.632;23.408;2023-05-02T07:23:59;0.20;;;0.20;;
19760;SDS011;10039;42.632;23.408;2023-05-02T07:26:25;0.10;;;0.10;;
19760;SDS011;10039;42.632;23.408;2023-05-02T07:28:52;0.10;;;0.10;;
19760;SDS011;10039;42.632;23.408;2023-05-02T07:31:17;0.10;;;0.10;;
19760;SDS011;10039;42.632;23.408;2023-05-02T07:33:43;0.10;;;0.10;;
19760;SDS011;10039;42.632;23.408;2023-05-02T07:36:08;0.10;;;0.10;;
19760;SDS011;10039;42.632;23.408;2023-05-02T07:38:34;0.10;;;0.10;;
19760;SDS011;10039;42.632;23.408;2023-05-02T07:40:59;0.20;;;0.20;;
19760;SDS011;10039;42.632;23.408;2023-05-02T07:43:25;0.10;;;0.10;;
19760;SDS011;10039;42.632;23.408;2023-05-02T07:45:50;0.10;;;0.10;;
19760;SDS011;10039;42.632;23.408;2023-05-02T07:48:16;0.20;;;0.20;;
19760;SDS011;10039;42.632;23.408;2023-05-02T07:50:42;0.10;;;0.10;;
19760;SDS011;10039;42.632;23.408;2023-05-02T07:53:08;0.10;;;0.10;;
19760;SDS011;10039;42.632;23.408;2023-05-02T07:55:33;0.10;;;0.10;;
19760;SDS011;10039;42.632;23.408;2023-05-02T07:57:59;0.10;;;0.10;;
19760;SDS011;10039;42.632;23.408;2023-05-02T08:00:24;0.10;;;0.10;;
19760;SDS011;10039;42.632;23.408;2023-05-02T08:02:50;0.10;;;0.10;;
19760;SDS011;10039;42.632;23.408;2023-05-02T08:05:15;0.10;;;0.10;;
19760;SDS011;10039;42.632;23.408;2023-05-02T08:07:41;0.10;;;0.10;;
19760;SDS011;10039;42.632;23.408;2023-05-02T08:10:07;0.10;;;0.10;;
19760;SDS011;10039;42.632;23.408;2023-05-02T08:12:36;0.10;;;0.10;;
19760;SDS011;10039;42.632;23.408;2023-05-02T08:15:06;0.10;;;0.10;;
19760;SDS011;10039;42.632;23.408;2023-05-02T08:17:33;0.10;;;0.10;;
19760;SDS011;10039;42.632;23.408;2023-05-02T08:19:58;0.15;;;0.15;;
19760;SDS011;10039;42.632;23.408;2023-05-02T08:22:25;0.10;;;0.10;;
19760;SDS011;10039;42.632;23.408;2023-05-02T08:24:50;0.10;;;0.10;;
19760;SDS011;10039;42.632;23.408;2023-05-02T08:27:16;0.10;;;0.10;;
19760;SDS011;10039;42.632;23.408;2023-05-02T08:29:41;0.10;;;0.10;;
19760;SDS011;10039;42.632;23.408;2023-05-02T08:32:06;0.10;;;0.10;;
19760;SDS011;10039;42.632;23.408;2023-05-02T08:34:32;0.10;;;0.10;;
19760;SDS011;10039;42.632;23.408;2023-05-02T08:36:58;0.10;;;0.10;;
19760;SDS011;10039;42.632;23.408;2023-05-02T08:39:23;0.08;;;0.08;;
19760;SDS011;10039;42.632;23.408;2023-05-02T08:41:49;0.10;;;0.10;;
19760;SDS011;10039;42.632;23.408;2023-05-02T08:44:14;0.10;;;0.10;;
19760;SDS011;10039;42.632;23.408;2023-05-02T08:46:40;0.10;;;0.10;;
19760;SDS011;10039;42.632;23.408;2023-05-02T08:49:09;0.10;;;0.10;;
19760;SDS011;10039;42.632;23.408;2023-05-02T08:51:34;0.10;;;0.10;;
19760;SDS011;10039;42.632;23.408;2023-05-02T08:54:01;0.10;;;0.10;;
19760;SDS011;10039;42.632;23.408;2023-05-02T08:56:27;0.00;;;0.00;;
19760;SDS011;10039;42.632;23.408;2023-05-02T08:58:53;0.10;;;0.10;;
19760;SDS011;10039;42.632;23.408;2023-05-02T09:01:21;0.10;;;0.10;;
19760;SDS011;10039;42.632;23.408;2023-05-02T09:03:47;0.10;;;0.10;;
19760;SDS011;10039;42.632;23.408;2023-05-02T09:06:17;0.10;;;0.10;;
19760;SDS011;10039;42.632;23.408;2023-05-02T09:08:45;0.10;;;0.10;;
19760;SDS011;10039;42.632;23.408;2023-05-02T09:11:16;0.10;;;0.10;;
19760;SDS011;10039;42.632;23.408;2023-05-02T09:13:43;0.10;;;0.10;;
19760;SDS011;10039;42.632;23.408;2023-05-02T09:16:12;0.10;;;0.10;;
19760;SDS011;10039;42.632;23.408;2023-05-02T09:18:41;0.10;;;0.10;;
19760;SDS011;10039;42.632;23.408;2023-05-02T09:21:12;0.10;;;0.10;;
19760;SDS011;10039;42.632;23.408;2023-05-02T09:23:43;0.10;;;0.10;;
19760;SDS011;10039;42.632;23.408;2023-05-02T09:26:10;0.10;;;0.10;;
19760;SDS011;10039;42.632;23.408;2023-05-02T09:31:12;0.10;;;0.10;;
19760;SDS011;10039;42.632;23.408;2023-05-02T09:33:39;0.10;;;0.10;;
19760;SDS011;10039;42.632;23.408;2023-05-02T09:36:06;0.10;;;0.10;;
19760;SDS011;10039;42.632;23.408;2023-05-02T09:38:32;0.10;;;0.10;;
19760;SDS011;10039;42.632;23.408;2023-05-02T09:40:58;0.10;;;0.10;;
19760;SDS011;10039;42.632;23.408;2023-05-02T09:43:25;0.10;;;0.10;;
19760;SDS011;10039;42.632;23.408;2023-05-02T09:48:28;0.10;;;0.10;;
19760;SDS011;10039;42.632;23.408;2023-05-02T09:50:54;0.10;;;0.10;;
19760;SDS011;10039;42.632;23.408;2023-05-02T09:53:20;0.03;;;0.03;;
19760;SDS011;10039;42.632;23.408;2023-05-02T09:55:46;0.10;;;0.10;;
19760;SDS011;10039;42.632;23.408;2023-05-02T09:58:21;0.08;;;0.08;;
19760;SDS011;10039;42.632;23.408;2023-05-02T10:00:48;0.13;;;0.13;;
19760;SDS011;10039;42.632;23.408;2023-05-02T10:03:15;0.10;;;0.10;;
19760;SDS011;10039;42.632;23.408;2023-05-02T10:05:42;0.10;;;0.10;;
19760;SDS011;10039;42.632;23.408;2023-05-02T10:08:09;0.10;;;0.10;;
19760;SDS011;10039;42.632;23.408;2023-05-02T10:10:37;0.10;;;0.10;;
19760;SDS011;10039;42.632;23.408;2023-05-02T10:13:05;0.00;;;0.00;;
19760;SDS011;10039;42.632;23.408;2023-05-02T10:15:32;0.05;;;0.05;;
19760;SDS011;10039;42.632;23.408;2023-05-02T10:17:58;0.10;;;0.10;;
19760;SDS011;10039;42.632;23.408;2023-05-02T10:20:28;0.00;;;0.00;;
19760;SDS011;10039;42.632;23.408;2023-05-02T10:23:00;0.10;;;0.10;;
19760;SDS011;10039;42.632;23.408;2023-05-02T10:25:28;0.10;;;0.10;;
19760;SDS011;10039;42.632;23.408;2023-05-02T10:27:57;0.10;;;0.10;;
19760;SDS011;10039;42.632;23.408;2023-05-02T10:30:24;0.10;;;0.10;;
19760;SDS011;10039;42.632;23.408;2023-05-02T10:32:51;0.10;;;0.10;;
19760;SDS011;10039;42.632;23.408;2023-05-02T10:35:19;0.10;;;0.10;;
19760;SDS011;10039;42.632;23.408;2023-05-02T10:37:45;0.08;;;0.08;;
19760;SDS011;10039;42.632;23.408;2023-05-02T10:40:13;0.10;;;0.10;;
19760;SDS011;10039;42.632;23.408;2023-05-02T10:42:39;0.10;;;0.10;;
19760;SDS011;10039;42.632;23.408;2023-05-02T10:45:11;0.10;;;0.10;;
19760;SDS011;10039;42.632;23.408;2023-05-02T10:50:44;0.10;;;0.10;;
19760;SDS011;10039;42.632;23.408;2023-05-02T10:53:32;0.13;;;0.13;;
19760;SDS011;10039;42.632;23.408;2023-05-02T10:56:16;0.10;;;0.10;;
19760;SDS011;10039;42.632;23.408;2023-05-02T10:58:49;0.10;;;0.10;;
19760;SDS011;10039;42.632;23.408;2023-05-02T11:01:35;0.10;;;0.10;;
19760;SDS011;10039;42.632;23.408;2023-05-02T11:04:04;0.20;;;0.20;;
19760;SDS011;10039;42.632;23.408;2023-05-02T11:06:35;0.10;;;0.10;;
19760;SDS011;10039;42.632;23.408;2023-05-02T11:11:46;0.05;;;0.05;;
19760;SDS011;10039;42.632;23.408;2023-05-02T11:19:23;0.10;;;0.10;;
19760;SDS011;10039;42.632;23.408;2023-05-02T11:21:50;0.10;;;0.10;;
19760;SDS011;10039;42.632;23.408;2023-05-02T11:29:54;0.10;;;0.10;;
19760;SDS011;10039;42.632;23.408;2023-05-02T11:32:20;0.10;;;0.10;;
19760;SDS011;10039;42.632;23.408;2023-05-02T11:34:46;0.10;;;0.10;;
19760;SDS011;10039;42.632;23.408;2023-05-02T11:37:16;0.10;;;0.10;;
19760;SDS011;10039;42.632;23.408;2023-05-02T11:39:42;0.10;;;0.10;;
19760;SDS011;10039;42.632;23.408;2023-05-02T11:42:07;0.10;;;0.10;;
19760;SDS011;10039;42.632;23.408;2023-05-02T11:44:33;0.10;;;0.10;;
19760;SDS011;10039;42.632;23.408;2023-05-02T11:46:59;0.10;;;0.10;;
19760;SDS011;10039;42.632;23.408;2023-05-02T11:49:26;0.13;;;0.13;;
19760;SDS011;10039;42.632;23.408;2023-05-02T11:51:52;0.10;;;0.10;;
19760;SDS011;10039;42.632;23.408;2023-05-02T11:54:18;0.10;;;0.10;;
19760;SDS011;10039;42.632;23.408;2023-05-02T11:56:44;0.10;;;0.10;;
19760;SDS011;10039;42.632;23.408;2023-05-02T11:59:11;0.10;;;0.10;;
19760;SDS011;10039;42.632;23.408;2023-05-02T12:01:45;0.10;;;0.10;;
19760;SDS011;10039;42.632;23.408;2023-05-02T12:04:12;0.10;;;0.10;;
19760;SDS011;10039;42.632;23.408;2023-05-02T12:06:38;0.10;;;0.10;;
19760;SDS011;10039;42.632;23.408;2023-05-02T12:11:32;0.10;;;0.10;;
19760;SDS011;10039;42.632;23.408;2023-05-02T12:13:59;0.10;;;0.10;;
19760;SDS011;10039;42.632;23.408;2023-05-02T12:16:26;0.10;;;0.10;;
19760;SDS011;10039;42.632;23.408;2023-05-02T12:18:51;0.10;;;0.10;;
19760;SDS011;10039;42.632;23.408;2023-05-02T12:21:17;0.10;;;0.10;;
19760;SDS011;10039;42.632;23.408;2023-05-02T12:23:42;0.10;;;0.10;;
19760;SDS011;10039;42.632;23.408;2023-05-02T12:26:15;0.08;;;0.08;;
19760;SDS011;10039;42.632;23.408;2023-05-02T12:28:48;0.00;;;0.00;;
19760;SDS011;10039;42.632;23.408;2023-05-02T12:31:15;0.10;;;0.10;;
19760;SDS011;10039;42.632;23.408;2023-05-02T12:33:41;0.00;;;0.00;;
19760;SDS011;10039;42.632;23.408;2023-05-02T12:36:08;0.10;;;0.10;;
19760;SDS011;10039;42.632;23.408;2023-05-02T12:38:34;0.10;;;0.10;;
19760;SDS011;10039;42.632;23.408;2023-05-02T12:41:00;0.10;;;0.10;;
19760;SDS011;10039;42.632;23.408;2023-05-02T12:43:26;0.17;;;0.17;;
19760;SDS011;10039;42.632;23.408;2023-05-02T12:46:07;0.20;;;0.20;;
19760;SDS011;10039;42.632;23.408;2023-05-02T12:48:34;0.10;;;0.10;;
19760;SDS011;10039;42.632;23.408;2023-05-02T12:50:59;0.10;;;0.10;;
19760;SDS011;10039;42.632;23.408;2023-05-02T12:53:41;0.10;;;0.10;;
19760;SDS011;10039;42.632;23.408;2023-05-02T12:56:11;0.10;;;0.10;;
19760;SDS011;10039;42.632;23.408;2023-05-02T12:58:46;0.10;;;0.10;;
19760;SDS011;10039;42.632;23.408;2023-05-02T13:01:12;0.10;;;0.10;;
19760;SDS011;10039;42.632;23.408;2023-05-02T13:03:39;0.10;;;0.10;;
19760;SDS011;10039;42.632;23.408;2023-05-02T13:06:05;0.10;;;0.10;;
19760;SDS011;10039;42.632;23.408;2023-05-02T13:08:32;0.10;;;0.10;;
19760;SDS011;10039;42.632;23.408;2023-05-02T13:10:59;0.10;;;0.10;;
19760;SDS011;10039;42.632;23.408;2023-05-02T13:13:25;0.10;;;0.10;;
19760;SDS011;10039;42.632;23.408;2023-05-02T13:15:50;0.10;;;0.10;;
19760;SDS011;10039;42.632;23.408;2023-05-02T13:18:16;0.10;;;0.10;;
19760;SDS011;10039;42.632;23.408;2023-05-02T13:20:41;0.10;;;0.10;;
19760;SDS011;10039;42.632;23.408;2023-05-02T13:23:07;0.10;;;0.10;;
19760;SDS011;10039;42.632;23.408;2023-05-02T13:25:32;0.10;;;0.10;;
19760;SDS011;10039;42.632;23.408;2023-05-02T13:27:58;0.10;;;0.10;;
19760;SDS011;10039;42.632;23.408;2023-05-02T13:30:23;0.10;;;0.10;;
19760;SDS011;10039;42.632;23.408;2023-05-02T13:32:48;0.10;;;0.10;;
19760;SDS011;10039;42.632;23.408;2023-05-02T13:35:14;0.10;;;0.10;;
19760;SDS011;10039;42.632;23.408;2023-05-02T13:37:40;0.10;;;0.10;;
19760;SDS011;10039;42.632;23.408;2023-05-02T13:40:06;0.10;;;0.10;;
19760;SDS011;10039;42.632;23.408;2023-05-02T13:42:32;0.10;;;0.10;;
19760;SDS011;10039;42.632;23.408;2023-05-02T13:44:58;0.00;;;0.00;;
19760;SDS011;10039;42.632;23.408;2023-05-02T13:47:24;0.10;;;0.10;;
19760;SDS011;10039;42.632;23.408;2023-05-02T13:49:50;0.10;;;0.10;;
19760;SDS011;10039;42.632;23.408;2023-05-02T13:52:17;0.10;;;0.10;;
19760;SDS011;10039;42.632;23.408;2023-05-02T13:54:42;0.10;;;0.10;;
19760;SDS011;10039;42.632;23.408;2023-05-02T13:57:08;0.10;;;0.10;;
19760;SDS011;10039;42.632;23.408;2023-05-02T13:59:33;0.10;;;0.10;;
19760;SDS011;10039;42.632;23.408;2023-05-02T14:01:58;0.08;;;0.08;;
19760;SDS011;10039;42.632;23.408;2023-05-02T14:04:24;0.00;;;0.00;;
19760;SDS011;10039;42.632;23.408;2023-05-02T14:06:49;0.10;;;0.10;;
19760;SDS011;10039;42.632;23.408;2023-05-02T14:09:15;0.10;;;0.10;;
19760;SDS011;10039;42.632;23.408;2023-05-02T14:11:41;0.10;;;0.10;;
19760;SDS011;10039;42.632;23.408;2023-05-02T14:14:08;0.10;;;0.10;;
19760;SDS011;10039;42.632;23.408;2023-05-02T14:16:36;0.10;;;0.10;;
19760;SDS011;10039;42.632;23.408;2023-05-02T14:19:02;0.10;;;0.10;;
19760;SDS011;10039;42.632;23.408;2023-05-02T14:21:28;0.00;;;0.00;;
19760;SDS011;10039;42.632;23.408;2023-05-02T14:23:54;0.10;;;0.10;;
19760;SDS011;10039;42.632;23.408;2023-05-02T14:26:19;0.08;;;0.08;;
19760;SDS011;10039;42.632;23.408;2023-05-02T14:28:45;0.10;;;0.10;;
19760;SDS011;10039;42.632;23.408;2023-05-02T14:31:11;0.10;;;0.10;;
19760;SDS011;10039;42.632;23.408;2023-05-02T14:33:37;0.05;;;0.05;;
19760;SDS011;10039;42.632;23.408;2023-05-02T14:36:02;0.10;;;0.10;;
19760;SDS011;10039;42.632;23.408;2023-05-02T14:38:28;0.10;;;0.10;;
19760;SDS011;10039;42.632;23.408;2023-05-02T14:40:54;0.10;;;0.10;;
19760;SDS011;10039;42.632;23.408;2023-05-02T14:43:19;0.10;;;0.10;;
19760;SDS011;10039;42.632;23.408;2023-05-02T14:45:45;0.10;;;0.10;;
19760;SDS011;10039;42.632;23.408;2023-05-02T14:48:11;0.10;;;0.10;;
19760;SDS011;10039;42.632;23.408;2023-05-02T14:50:38;0.10;;;0.10;;
19760;SDS011;10039;42.632;23.408;2023-05-02T14:53:04;0.00;;;0.00;;
19760;SDS011;10039;42.632;23.408;2023-05-02T14:55:34;0.08;;;0.08;;
19760;SDS011;10039;42.632;23.408;2023-05-02T14:58:00;0.00;;;0.00;;
19760;SDS011;10039;42.632;23.408;2023-05-02T15:00:26;0.10;;;0.10;;
19760;SDS011;10039;42.632;23.408;2023-05-02T15:02:52;0.10;;;0.10;;
19760;SDS011;10039;42.632;23.408;2023-05-02T15:05:17;0.10;;;0.10;;
19760;SDS011;10039;42.632;23.408;2023-05-02T15:07:43;0.10;;;0.10;;
19760;SDS011;10039;42.632;23.408;2023-05-02T15:10:08;0.10;;;0.10;;
19760;SDS011;10039;42.632;23.408;2023-05-02T15:12:34;0.00;;;0.00;;
19760;SDS011;10039;42.632;23.408;2023-05-02T15:14:59;0.10;;;0.10;;
19760;SDS011;10039;42.632;23.408;2023-05-02T15:17:25;0.10;;;0.10;;
19760;SDS011;10039;42.632;23.408;2023-05-02T15:19:50;0.10;;;0.10;;
19760;SDS011;10039;42.632;23.408;2023-05-02T15:22:16;0.20;;;0.20;;